TX57 weather

U S Coast Guard Station Heliport
Port Isabel, Texas, United States

Public forecast

Using degrees Fahrenheit for public forecast. Weather courtesy of forecast.io.

Closest aviation weather report (METAR) to U S Coast Guard Station Heliport

Closest report is Port Isabel Cameron County Airport, 11.3 nm (21.0 km) WNW. Retrieved 2019/10/21 16:36 UTC (0 seconds ago):

KPIL 211636Z AUTO 23006KT 7SM FEW015 SCT025 BKN033 30/26 A2980 RMK AO2 T03000261

Closest aviation forecast (TAF) to U S Coast Guard Station Heliport

Closest forecast is Brownsville South Padre Island International Airport, 17.3 nm (32.0 km) SW. Retrieved 2019/10/21 12:30 UTC (4 hours ago):

TAF KBRO 211129Z 2112/2212 17009KT P6SM FEW015 SCT060 BKN100 TEMPO 2112/2114 BKN025 FM211800 21009KT P6SM VCTS SCT025CB BKN060 FM212100 28012KT P6SM SCT030 BKN100 PROB30 2121/2124 4SM TSRA BKN030CB FM220300 01006KT P6SM FEW020 SCT100